sensor_id;sensor_type;location;lat;lon;timestamp;temperature;humidity
14099;DHT22;7126;48.458;7.930;2022-07-11T00:02:11;17.70;99.90
14099;DHT22;7126;48.458;7.930;2022-07-11T00:04:37;17.70;99.90
14099;DHT22;7126;48.458;7.930;2022-07-11T00:07:03;17.70;99.90
14099;DHT22;7126;48.458;7.930;2022-07-11T00:09:30;17.60;99.90
14099;DHT22;7126;48.458;7.930;2022-07-11T00:11:56;17.50;99.90
14099;DHT22;7126;48.458;7.930;2022-07-11T00:14:22;17.40;99.90
14099;DHT22;7126;48.458;7.930;2022-07-11T00:16:49;17.30;99.90
14099;DHT22;7126;48.458;7.930;2022-07-11T00:19:15;17.30;99.90
14099;DHT22;7126;48.458;7.930;2022-07-11T00:21:40;17.30;99.90
14099;DHT22;7126;48.458;7.930;2022-07-11T00:24:06;17.30;99.90
14099;DHT22;7126;48.458;7.930;2022-07-11T00:26:36;17.30;99.90
14099;DHT22;7126;48.458;7.930;2022-07-11T00:29:02;17.30;99.90
14099;DHT22;7126;48.458;7.930;2022-07-11T00:31:28;17.30;99.90
14099;DHT22;7126;48.458;7.930;2022-07-11T00:33:54;17.20;99.90
14099;DHT22;7126;48.458;7.930;2022-07-11T00:36:20;17.10;99.90
14099;DHT22;7126;48.458;7.930;2022-07-11T00:38:45;17.10;99.90
14099;DHT22;7126;48.458;7.930;2022-07-11T00:41:11;17.00;99.90
14099;DHT22;7126;48.458;7.930;2022-07-11T00:43:38;17.00;99.90
14099;DHT22;7126;48.458;7.930;2022-07-11T00:46:06;17.00;99.90
14099;DHT22;7126;48.458;7.930;2022-07-11T00:48:32;16.90;99.90
14099;DHT22;7126;48.458;7.930;2022-07-11T00:50:58;17.00;99.90
14099;DHT22;7126;48.458;7.930;2022-07-11T00:53:24;17.00;99.90
14099;DHT22;7126;48.458;7.930;2022-07-11T00:55:51;17.00;99.90
14099;DHT22;7126;48.458;7.930;2022-07-11T00:58:18;17.00;99.90
14099;DHT22;7126;48.458;7.930;2022-07-11T01:00:44;16.90;99.90
14099;DHT22;7126;48.458;7.930;2022-07-11T01:03:10;16.70;99.90
14099;DHT22;7126;48.458;7.930;2022-07-11T01:05:36;16.70;99.90
14099;DHT22;7126;48.458;7.930;2022-07-11T01:08:02;16.70;99.90
14099;DHT22;7126;48.458;7.930;2022-07-11T01:10:28;16.60;99.90
14099;DHT22;7126;48.458;7.930;2022-07-11T01:12:54;16.60;99.90
14099;DHT22;7126;48.458;7.930;2022-07-11T01:15:20;16.60;99.90
14099;DHT22;7126;48.458;7.930;2022-07-11T01:17:46;16.60;99.90
14099;DHT22;7126;48.458;7.930;2022-07-11T01:20:12;16.60;99.90
14099;DHT22;7126;48.458;7.930;2022-07-11T01:22:46;16.60;99.90
14099;DHT22;7126;48.458;7.930;2022-07-11T01:25:15;16.50;99.90
14099;DHT22;7126;48.458;7.930;2022-07-11T01:28:02;16.60;99.90
14099;DHT22;7126;48.458;7.930;2022-07-11T01:30:29;16.60;99.90
14099;DHT22;7126;48.458;7.930;2022-07-11T01:32:55;16.50;99.90
14099;DHT22;7126;48.458;7.930;2022-07-11T01:35:21;16.50;99.90
14099;DHT22;7126;48.458;7.930;2022-07-11T01:37:48;16.50;99.90
14099;DHT22;7126;48.458;7.930;2022-07-11T01:40:14;16.50;99.90
14099;DHT22;7126;48.458;7.930;2022-07-11T01:42:40;16.30;99.90
14099;DHT22;7126;48.458;7.930;2022-07-11T01:45:06;16.30;99.90
14099;DHT22;7126;48.458;7.930;2022-07-11T01:47:32;16.30;99.90
14099;DHT22;7126;48.458;7.930;2022-07-11T01:49:58;16.30;99.90
14099;DHT22;7126;48.458;7.930;2022-07-11T01:52:23;16.20;99.90
14099;DHT22;7126;48.458;7.930;2022-07-11T01:54:49;16.20;99.90
14099;DHT22;7126;48.458;7.930;2022-07-11T01:57:15;16.20;99.90
14099;DHT22;7126;48.458;7.930;2022-07-11T01:59:41;16.10;99.90
14099;DHT22;7126;48.458;7.930;2022-07-11T02:02:07;16.20;99.90
14099;DHT22;7126;48.458;7.930;2022-07-11T02:04:32;16.20;99.90
14099;DHT22;7126;48.458;7.930;2022-07-11T02:06:58;16.20;99.90
14099;DHT22;7126;48.458;7.930;2022-07-11T02:19:08;16.10;99.90
14099;DHT22;7126;48.458;7.930;2022-07-11T02:21:36;16.10;99.90
14099;DHT22;7126;48.458;7.930;2022-07-11T02:24:02;16.10;99.90
14099;DHT22;7126;48.458;7.930;2022-07-11T02:26:28;16.10;99.90
14099;DHT22;7126;48.458;7.930;2022-07-11T02:28:54;16.10;99.90
14099;DHT22;7126;48.458;7.930;2022-07-11T02:31:19;16.10;99.90
14099;DHT22;7126;48.458;7.930;2022-07-11T02:33:45;15.90;99.90
14099;DHT22;7126;48.458;7.930;2022-07-11T02:36:10;15.90;99.90
14099;DHT22;7126;48.458;7.930;2022-07-11T02:38:36;15.90;99.90
14099;DHT22;7126;48.458;7.930;2022-07-11T02:41:02;15.90;99.90
14099;DHT22;7126;48.458;7.930;2022-07-11T02:43:28;15.90;99.90
14099;DHT22;7126;48.458;7.930;2022-07-11T02:45:54;15.90;99.90
14099;DHT22;7126;48.458;7.930;2022-07-11T02:48:20;15.90;99.90
14099;DHT22;7126;48.458;7.930;2022-07-11T02:50:46;15.90;99.90
14099;DHT22;7126;48.458;7.930;2022-07-11T02:53:11;15.80;99.90
14099;DHT22;7126;48.458;7.930;2022-07-11T02:55:37;15.80;99.90
14099;DHT22;7126;48.458;7.930;2022-07-11T02:58:03;15.80;99.90
14099;DHT22;7126;48.458;7.930;2022-07-11T03:00:29;15.90;99.90
14099;DHT22;7126;48.458;7.930;2022-07-11T03:02:54;15.90;99.90
14099;DHT22;7126;48.458;7.930;2022-07-11T03:05:20;15.90;99.90
14099;DHT22;7126;48.458;7.930;2022-07-11T03:07:46;15.90;99.90
14099;DHT22;7126;48.458;7.930;2022-07-11T03:10:11;15.80;99.90
14099;DHT22;7126;48.458;7.930;2022-07-11T03:12:37;15.70;99.90
14099;DHT22;7126;48.458;7.930;2022-07-11T03:15:04;15.70;99.90
14099;DHT22;7126;48.458;7.930;2022-07-11T03:17:30;15.60;99.90
14099;DHT22;7126;48.458;7.930;2022-07-11T03:19:55;15.60;99.90
14099;DHT22;7126;48.458;7.930;2022-07-11T03:22:21;15.60;99.90
14099;DHT22;7126;48.458;7.930;2022-07-11T03:24:48;15.50;99.90
14099;DHT22;7126;48.458;7.930;2022-07-11T03:27:16;15.50;99.90
14099;DHT22;7126;48.458;7.930;2022-07-11T03:29:42;15.60;99.90
14099;DHT22;7126;48.458;7.930;2022-07-11T03:32:08;15.60;99.90
14099;DHT22;7126;48.458;7.930;2022-07-11T03:34:34;15.60;99.90
14099;DHT22;7126;48.458;7.930;2022-07-11T03:37:00;15.50;99.90
14099;DHT22;7126;48.458;7.930;2022-07-11T03:39:26;15.50;99.90
14099;DHT22;7126;48.458;7.930;2022-07-11T03:41:51;15.50;99.90
14099;DHT22;7126;48.458;7.930;2022-07-11T03:44:17;15.40;99.90
14099;DHT22;7126;48.458;7.930;2022-07-11T03:46:42;15.40;99.90
14099;DHT22;7126;48.458;7.930;2022-07-11T03:49:08;15.40;99.90
14099;DHT22;7126;48.458;7.930;2022-07-11T03:51:34;15.40;99.90
14099;DHT22;7126;48.458;7.930;2022-07-11T03:53:59;15.40;99.90
14099;DHT22;7126;48.458;7.930;2022-07-11T03:56:25;15.40;99.90
14099;DHT22;7126;48.458;7.930;2022-07-11T03:58:51;15.50;99.90
14099;DHT22;7126;48.458;7.930;2022-07-11T04:01:18;15.50;99.90
14099;DHT22;7126;48.458;7.930;2022-07-11T04:03:45;15.50;99.90
14099;DHT22;7126;48.458;7.930;2022-07-11T04:06:11;15.50;99.90
14099;DHT22;7126;48.458;7.930;2022-07-11T04:08:37;15.40;99.90
14099;DHT22;7126;48.458;7.930;2022-07-11T04:11:02;15.40;99.90
14099;DHT22;7126;48.458;7.930;2022-07-11T04:13:29;15.40;99.90
14099;DHT22;7126;48.458;7.930;2022-07-11T04:15:55;15.40;99.90
14099;DHT22;7126;48.458;7.930;2022-07-11T04:18:21;15.40;99.90
14099;DHT22;7126;48.458;7.930;2022-07-11T04:20:47;15.40;99.90
14099;DHT22;7126;48.458;7.930;2022-07-11T04:23:15;15.40;99.90
14099;DHT22;7126;48.458;7.930;2022-07-11T04:25:40;15.40;99.90
14099;DHT22;7126;48.458;7.930;2022-07-11T04:28:06;15.40;99.90
14099;DHT22;7126;48.458;7.930;2022-07-11T04:30:32;15.30;99.90
14099;DHT22;7126;48.458;7.930;2022-07-11T04:32:59;15.30;99.90
14099;DHT22;7126;48.458;7.930;2022-07-11T04:35:24;15.30;99.90
14099;DHT22;7126;48.458;7.930;2022-07-11T04:37:52;15.30;99.90
14099;DHT22;7126;48.458;7.930;2022-07-11T04:40:17;15.40;99.90
14099;DHT22;7126;48.458;7.930;2022-07-11T04:42:43;15.40;99.90
14099;DHT22;7126;48.458;7.930;2022-07-11T04:45:09;15.40;99.90
14099;DHT22;7126;48.458;7.930;2022-07-11T04:47:35;15.50;99.90
14099;DHT22;7126;48.458;7.930;2022-07-11T04:50:01;15.60;99.90
14099;DHT22;7126;48.458;7.930;2022-07-11T04:52:27;15.60;99.90
14099;DHT22;7126;48.458;7.930;2022-07-11T04:54:53;15.70;99.90
14099;DHT22;7126;48.458;7.930;2022-07-11T04:57:19;15.80;99.90
14099;DHT22;7126;48.458;7.930;2022-07-11T04:59:44;15.80;99.90
14099;DHT22;7126;48.458;7.930;2022-07-11T05:02:10;15.80;99.90
14099;DHT22;7126;48.458;7.930;2022-07-11T05:04:35;15.90;99.90
14099;DHT22;7126;48.458;7.930;2022-07-11T05:07:01;15.90;99.90
14099;DHT22;7126;48.458;7.930;2022-07-11T05:09:27;15.90;99.90
14099;DHT22;7126;48.458;7.930;2022-07-11T05:11:52;16.10;99.90
14099;DHT22;7126;48.458;7.930;2022-07-11T05:14:18;16.10;99.90
14099;DHT22;7126;48.458;7.930;2022-07-11T05:16:44;16.10;99.90
14099;DHT22;7126;48.458;7.930;2022-07-11T05:19:09;16.20;99.90
14099;DHT22;7126;48.458;7.930;2022-07-11T05:21:35;16.30;99.90
14099;DHT22;7126;48.458;7.930;2022-07-11T05:24:00;16.20;99.90
14099;DHT22;7126;48.458;7.930;2022-07-11T05:26:26;16.20;99.90
14099;DHT22;7126;48.458;7.930;2022-07-11T05:28:52;16.30;99.90
14099;DHT22;7126;48.458;7.930;2022-07-11T05:31:17;16.30;99.90
14099;DHT22;7126;48.458;7.930;2022-07-11T05:33:43;16.30;99.90
14099;DHT22;7126;48.458;7.930;2022-07-11T05:36:09;16.30;99.90
14099;DHT22;7126;48.458;7.930;2022-07-11T05:38:34;16.20;99.90
14099;DHT22;7126;48.458;7.930;2022-07-11T05:41:00;16.20;99.90
14099;DHT22;7126;48.458;7.930;2022-07-11T05:43:25;16.30;99.90
14099;DHT22;7126;48.458;7.930;2022-07-11T05:45:51;16.40;99.90
14099;DHT22;7126;48.458;7.930;2022-07-11T05:48:17;16.50;99.90
14099;DHT22;7126;48.458;7.930;2022-07-11T05:50:43;16.60;99.90
14099;DHT22;7126;48.458;7.930;2022-07-11T05:53:08;16.60;99.90
14099;DHT22;7126;48.458;7.930;2022-07-11T05:55:36;16.70;99.90
14099;DHT22;7126;48.458;7.930;2022-07-11T05:58:02;16.80;99.90
14099;DHT22;7126;48.458;7.930;2022-07-11T06:00:28;16.80;99.90
14099;DHT22;7126;48.458;7.930;2022-07-11T06:02:54;16.90;99.90
14099;DHT22;7126;48.458;7.930;2022-07-11T06:05:19;17.00;99.90
14099;DHT22;7126;48.458;7.930;2022-07-11T06:07:45;17.00;99.90
14099;DHT22;7126;48.458;7.930;2022-07-11T06:10:30;17.10;99.90
14099;DHT22;7126;48.458;7.930;2022-07-11T06:12:57;17.20;99.90
14099;DHT22;7126;48.458;7.930;2022-07-11T06:15:24;17.30;99.90
14099;DHT22;7126;48.458;7.930;2022-07-11T06:17:51;17.40;99.90
14099;DHT22;7126;48.458;7.930;2022-07-11T06:20:17;17.40;99.90
14099;DHT22;7126;48.458;7.930;2022-07-11T06:22:42;17.40;99.90
14099;DHT22;7126;48.458;7.930;2022-07-11T06:25:08;17.40;99.90
14099;DHT22;7126;48.458;7.930;2022-07-11T06:27:35;17.60;99.90
14099;DHT22;7126;48.458;7.930;2022-07-11T06:30:01;17.70;99.90
14099;DHT22;7126;48.458;7.930;2022-07-11T06:32:27;17.80;99.90
14099;DHT22;7126;48.458;7.930;2022-07-11T06:34:53;17.90;99.90
14099;DHT22;7126;48.458;7.930;2022-07-11T06:37:19;18.10;99.90
14099;DHT22;7126;48.458;7.930;2022-07-11T06:39:45;18.20;99.90
14099;DHT22;7126;48.458;7.930;2022-07-11T06:42:10;18.30;99.90
14099;DHT22;7126;48.458;7.930;2022-07-11T06:44:36;18.40;99.90
14099;DHT22;7126;48.458;7.930;2022-07-11T06:47:01;18.40;99.90
14099;DHT22;7126;48.458;7.930;2022-07-11T06:49:27;18.40;99.90
14099;DHT22;7126;48.458;7.930;2022-07-11T06:51:52;18.60;99.90
14099;DHT22;7126;48.458;7.930;2022-07-11T06:54:18;18.70;99.90
14099;DHT22;7126;48.458;7.930;2022-07-11T06:56:43;18.80;99.90
14099;DHT22;7126;48.458;7.930;2022-07-11T06:59:09;18.90;99.90
14099;DHT22;7126;48.458;7.930;2022-07-11T07:01:35;19.00;99.90
14099;DHT22;7126;48.458;7.930;2022-07-11T07:04:00;19.00;99.90
14099;DHT22;7126;48.458;7.930;2022-07-11T07:06:26;19.10;99.90
14099;DHT22;7126;48.458;7.930;2022-07-11T07:08:52;19.20;99.90
14099;DHT22;7126;48.458;7.930;2022-07-11T07:11:17;19.20;99.90
14099;DHT22;7126;48.458;7.930;2022-07-11T07:13:44;19.30;99.90
14099;DHT22;7126;48.458;7.930;2022-07-11T07:16:11;19.40;99.90
14099;DHT22;7126;48.458;7.930;2022-07-11T07:18:37;19.50;99.90
14099;DHT22;7126;48.458;7.930;2022-07-11T07:21:05;19.60;99.90
14099;DHT22;7126;48.458;7.930;2022-07-11T07:23:31;19.70;99.90
14099;DHT22;7126;48.458;7.930;2022-07-11T07:25:57;19.70;99.90
14099;DHT22;7126;48.458;7.930;2022-07-11T07:28:23;19.80;99.90
14099;DHT22;7126;48.458;7.930;2022-07-11T07:30:48;19.90;99.90
14099;DHT22;7126;48.458;7.930;2022-07-11T07:33:14;20.00;99.90
14099;DHT22;7126;48.458;7.930;2022-07-11T07:35:39;20.00;99.90
14099;DHT22;7126;48.458;7.930;2022-07-11T07:38:05;20.10;99.90
14099;DHT22;7126;48.458;7.930;2022-07-11T07:40:30;20.20;99.90
14099;DHT22;7126;48.458;7.930;2022-07-11T07:42:56;20.30;99.90
14099;DHT22;7126;48.458;7.930;2022-07-11T07:45:22;20.40;99.90
14099;DHT22;7126;48.458;7.930;2022-07-11T07:47:48;20.50;99.90
14099;DHT22;7126;48.458;7.930;2022-07-11T07:50:14;20.60;99.90
14099;DHT22;7126;48.458;7.930;2022-07-11T07:52:39;20.70;99.90
14099;DHT22;7126;48.458;7.930;2022-07-11T07:55:06;20.80;99.90
14099;DHT22;7126;48.458;7.930;2022-07-11T07:57:32;20.90;99.90
14099;DHT22;7126;48.458;7.930;2022-07-11T07:59:57;20.90;99.90
14099;DHT22;7126;48.458;7.930;2022-07-11T08:02:41;21.00;99.90
14099;DHT22;7126;48.458;7.930;2022-07-11T08:05:07;21.10;99.90
14099;DHT22;7126;48.458;7.930;2022-07-11T08:07:34;21.20;99.90
14099;DHT22;7126;48.458;7.930;2022-07-11T08:10:00;21.30;99.90
14099;DHT22;7126;48.458;7.930;2022-07-11T08:12:26;21.40;99.90
14099;DHT22;7126;48.458;7.930;2022-07-11T08:14:51;21.50;99.90
14099;DHT22;7126;48.458;7.930;2022-07-11T08:17:17;21.60;99.90
14099;DHT22;7126;48.458;7.930;2022-07-11T08:19:42;21.70;99.90
14099;DHT22;7126;48.458;7.930;2022-07-11T08:22:08;21.80;99.90
14099;DHT22;7126;48.458;7.930;2022-07-11T08:24:34;21.90;99.90
14099;DHT22;7126;48.458;7.930;2022-07-11T08:26:59;22.00;99.90
14099;DHT22;7126;48.458;7.930;2022-07-11T08:29:25;22.10;99.90
14099;DHT22;7126;48.458;7.930;2022-07-11T08:31:50;22.10;99.90
14099;DHT22;7126;48.458;7.930;2022-07-11T08:34:16;22.20;99.90
14099;DHT22;7126;48.458;7.930;2022-07-11T08:36:41;22.30;99.90
14099;DHT22;7126;48.458;7.930;2022-07-11T08:39:07;22.40;99.90
14099;DHT22;7126;48.458;7.930;2022-07-11T08:41:32;22.50;99.90
14099;DHT22;7126;48.458;7.930;2022-07-11T08:44:02;22.60;99.90
14099;DHT22;7126;48.458;7.930;2022-07-11T08:46:29;22.70;99.90
14099;DHT22;7126;48.458;7.930;2022-07-11T08:48:55;22.80;99.90
14099;DHT22;7126;48.458;7.930;2022-07-11T08:51:21;22.90;99.90
14099;DHT22;7126;48.458;7.930;2022-07-11T08:53:48;23.00;99.90
14099;DHT22;7126;48.458;7.930;2022-07-11T08:56:15;23.20;99.90
14099;DHT22;7126;48.458;7.930;2022-07-11T08:58:44;23.30;99.90
14099;DHT22;7126;48.458;7.930;2022-07-11T09:01:17;23.40;99.90
14099;DHT22;7126;48.458;7.930;2022-07-11T09:03:43;23.50;99.90
14099;DHT22;7126;48.458;7.930;2022-07-11T09:06:10;23.70;99.90
14099;DHT22;7126;48.458;7.930;2022-07-11T09:08:36;23.80;99.90
14099;DHT22;7126;48.458;7.930;2022-07-11T09:11:03;23.90;99.90
14099;DHT22;7126;48.458;7.930;2022-07-11T09:13:29;24.00;99.90
14099;DHT22;7126;48.458;7.930;2022-07-11T09:16:02;24.10;99.90
14099;DHT22;7126;48.458;7.930;2022-07-11T09:18:37;24.20;99.90
14099;DHT22;7126;48.458;7.930;2022-07-11T09:21:14;24.30;99.90
14099;DHT22;7126;48.458;7.930;2022-07-11T09:24:03;24.40;99.90
14099;DHT22;7126;48.458;7.930;2022-07-11T09:26:50;24.40;99.90
14099;DHT22;7126;48.458;7.930;2022-07-11T09:29:18;24.60;99.90
14099;DHT22;7126;48.458;7.930;2022-07-11T09:31:46;24.70;99.90
14099;DHT22;7126;48.458;7.930;2022-07-11T09:34:17;24.80;99.90
14099;DHT22;7126;48.458;7.930;2022-07-11T09:36:47;24.90;99.90
14099;DHT22;7126;48.458;7.930;2022-07-11T09:39:18;25.00;99.90
14099;DHT22;7126;48.458;7.930;2022-07-11T09:41:44;25.10;99.90
14099;DHT22;7126;48.458;7.930;2022-07-11T09:44:34;25.10;99.90
14099;DHT22;7126;48.458;7.930;2022-07-11T09:47:01;25.00;99.90
14099;DHT22;7126;48.458;7.930;2022-07-11T09:49:35;25.00;99.90
14099;DHT22;7126;48.458;7.930;2022-07-11T09:52:15;25.20;99.90
14099;DHT22;7126;48.458;7.930;2022-07-11T09:54:55;25.40;99.90
14099;DHT22;7126;48.458;7.930;2022-07-11T09:57:39;25.60;99.90
14099;DHT22;7126;48.458;7.930;2022-07-11T10:00:10;25.70;99.90
14099;DHT22;7126;48.458;7.930;2022-07-11T10:02:37;25.80;99.90
14099;DHT22;7126;48.458;7.930;2022-07-11T10:05:03;25.90;99.90
14099;DHT22;7126;48.458;7.930;2022-07-11T10:07:29;26.00;99.90
14099;DHT22;7126;48.458;7.930;2022-07-11T10:09:57;26.10;99.90
14099;DHT22;7126;48.458;7.930;2022-07-11T10:12:24;26.10;99.90
14099;DHT22;7126;48.458;7.930;2022-07-11T10:14:51;26.00;99.90
14099;DHT22;7126;48.458;7.930;2022-07-11T10:17:42;25.90;99.90
14099;DHT22;7126;48.458;7.930;2022-07-11T10:31:20;26.70;99.90
14099;DHT22;7126;48.458;7.930;2022-07-11T10:34:06;26.90;99.90
14099;DHT22;7126;48.458;7.930;2022-07-11T10:36:35;26.90;99.90
14099;DHT22;7126;48.458;7.930;2022-07-11T10:39:21;26.70;99.90
14099;DHT22;7126;48.458;7.930;2022-07-11T10:41:52;26.50;99.90
14099;DHT22;7126;48.458;7.930;2022-07-11T10:44:18;26.50;99.90
14099;DHT22;7126;48.458;7.930;2022-07-11T10:46:44;26.60;99.90
14099;DHT22;7126;48.458;7.930;2022-07-11T10:57:27;27.00;99.90
14099;DHT22;7126;48.458;7.930;2022-07-11T11:00:05;27.10;99.90
14099;DHT22;7126;48.458;7.930;2022-07-11T11:02:32;26.90;99.90
14099;DHT22;7126;48.458;7.930;2022-07-11T11:05:50;26.70;99.90
14099;DHT22;7126;48.458;7.930;2022-07-11T11:16:45;27.40;99.90
14099;DHT22;7126;48.458;7.930;2022-07-11T11:22:15;27.60;99.90
14099;DHT22;7126;48.458;7.930;2022-07-11T11:24:45;27.80;99.90
14099;DHT22;7126;48.458;7.930;2022-07-11T11:27:21;27.90;99.90
14099;DHT22;7126;48.458;7.930;2022-07-11T11:29:49;27.80;99.90
14099;DHT22;7126;48.458;7.930;2022-07-11T11:32:16;27.80;99.90
14099;DHT22;7126;48.458;7.930;2022-07-11T11:34:42;27.90;99.90
14099;DHT22;7126;48.458;7.930;2022-07-11T11:37:08;28.00;99.90
14099;DHT22;7126;48.458;7.930;2022-07-11T11:39:38;28.10;99.90
14099;DHT22;7126;48.458;7.930;2022-07-11T11:42:11;28.30;99.90
14099;DHT22;7126;48.458;7.930;2022-07-11T11:44:49;28.50;99.90
14099;DHT22;7126;48.458;7.930;2022-07-11T11:47:15;28.60;99.90
14099;DHT22;7126;48.458;7.930;2022-07-11T11:49:44;28.70;99.90
14099;DHT22;7126;48.458;7.930;2022-07-11T11:52:10;28.80;99.90
14099;DHT22;7126;48.458;7.930;2022-07-11T11:54:36;28.90;99.90
14099;DHT22;7126;48.458;7.930;2022-07-11T11:57:09;29.00;99.90
14099;DHT22;7126;48.458;7.930;2022-07-11T11:59:37;29.00;99.90
14099;DHT22;7126;48.458;7.930;2022-07-11T12:02:03;29.10;99.90
14099;DHT22;7126;48.458;7.930;2022-07-11T12:04:33;29.20;99.90
14099;DHT22;7126;48.458;7.930;2022-07-11T12:07:00;29.20;99.90
14099;DHT22;7126;48.458;7.930;2022-07-11T12:09:27;29.30;99.90
14099;DHT22;7126;48.458;7.930;2022-07-11T12:12:12;29.40;99.90
14099;DHT22;7126;48.458;7.930;2022-07-11T12:14:56;29.30;99.90
14099;DHT22;7126;48.458;7.930;2022-07-11T12:17:26;29.30;99.40
14099;DHT22;7126;48.458;7.930;2022-07-11T12:19:52;29.30;99.40
14099;DHT22;7126;48.458;7.930;2022-07-11T12:22:19;29.50;98.90
14099;DHT22;7126;48.458;7.930;2022-07-11T12:24:49;29.60;99.30
14099;DHT22;7126;48.458;7.930;2022-07-11T12:27:25;29.60;98.60
14099;DHT22;7126;48.458;7.930;2022-07-11T12:29:51;29.60;99.90
14099;DHT22;7126;48.458;7.930;2022-07-11T12:32:18;29.70;99.30
14099;DHT22;7126;48.458;7.930;2022-07-11T12:34:46;29.70;99.50
14099;DHT22;7126;48.458;7.930;2022-07-11T12:37:18;29.70;99.90
14099;DHT22;7126;48.458;7.930;2022-07-11T12:45:14;29.90;99.70
14099;DHT22;7126;48.458;7.930;2022-07-11T12:47:47;30.10;99.10
14099;DHT22;7126;48.458;7.930;2022-07-11T12:52:57;30.20;97.70
14099;DHT22;7126;48.458;7.930;2022-07-11T12:55:28;30.20;97.00
14099;DHT22;7126;48.458;7.930;2022-07-11T12:58:07;30.10;97.30
14099;DHT22;7126;48.458;7.930;2022-07-11T13:00:34;30.10;97.40
14099;DHT22;7126;48.458;7.930;2022-07-11T13:03:02;30.10;98.80
14099;DHT22;7126;48.458;7.930;2022-07-11T13:05:28;30.10;97.50
14099;DHT22;7126;48.458;7.930;2022-07-11T13:07:53;30.10;97.70
14099;DHT22;7126;48.458;7.930;2022-07-11T13:10:38;30.10;98.90
14099;DHT22;7126;48.458;7.930;2022-07-11T13:13:16;30.20;97.50
14099;DHT22;7126;48.458;7.930;2022-07-11T13:15:43;30.20;97.60
14099;DHT22;7126;48.458;7.930;2022-07-11T13:18:09;30.10;98.50
14099;DHT22;7126;48.458;7.930;2022-07-11T13:20:35;30.10;98.60
14099;DHT22;7126;48.458;7.930;2022-07-11T13:23:01;30.20;97.50
14099;DHT22;7126;48.458;7.930;2022-07-11T13:25:27;30.20;98.40
14099;DHT22;7126;48.458;7.930;2022-07-11T13:27:53;30.30;98.20
14099;DHT22;7126;48.458;7.930;2022-07-11T13:30:20;30.30;98.60
14099;DHT22;7126;48.458;7.930;2022-07-11T13:32:49;30.40;98.20
14099;DHT22;7126;48.458;7.930;2022-07-11T13:35:15;30.40;98.20
14099;DHT22;7126;48.458;7.930;2022-07-11T13:37:41;30.30;97.00
14099;DHT22;7126;48.458;7.930;2022-07-11T13:40:13;30.40;97.80
14099;DHT22;7126;48.458;7.930;2022-07-11T13:42:40;30.40;96.80
14099;DHT22;7126;48.458;7.930;2022-07-11T13:45:07;30.30;97.10
14099;DHT22;7126;48.458;7.930;2022-07-11T13:47:33;30.30;97.50
14099;DHT22;7126;48.458;7.930;2022-07-11T13:49:59;30.30;98.20
14099;DHT22;7126;48.458;7.930;2022-07-11T13:52:26;30.30;97.60
14099;DHT22;7126;48.458;7.930;2022-07-11T13:54:51;30.30;97.60
14099;DHT22;7126;48.458;7.930;2022-07-11T13:57:17;30.30;97.60
14099;DHT22;7126;48.458;7.930;2022-07-11T13:59:43;30.30;96.70
14099;DHT22;7126;48.458;7.930;2022-07-11T14:02:08;30.40;97.10
14099;DHT22;7126;48.458;7.930;2022-07-11T14:04:34;30.40;98.10
14099;DHT22;7126;48.458;7.930;2022-07-11T14:07:00;30.40;97.90
14099;DHT22;7126;48.458;7.930;2022-07-11T14:09:26;30.40;98.30
14099;DHT22;7126;48.458;7.930;2022-07-11T14:11:53;30.40;98.20
14099;DHT22;7126;48.458;7.930;2022-07-11T14:14:19;30.40;98.00
14099;DHT22;7126;48.458;7.930;2022-07-11T14:16:45;30.40;98.10
14099;DHT22;7126;48.458;7.930;2022-07-11T14:19:10;30.50;97.80
14099;DHT22;7126;48.458;7.930;2022-07-11T14:21:37;30.40;97.30
14099;DHT22;7126;48.458;7.930;2022-07-11T14:24:04;30.40;97.80
14099;DHT22;7126;48.458;7.930;2022-07-11T14:26:30;30.40;97.20
14099;DHT22;7126;48.458;7.930;2022-07-11T14:28:56;30.30;96.50
14099;DHT22;7126;48.458;7.930;2022-07-11T14:31:22;30.30;97.30
14099;DHT22;7126;48.458;7.930;2022-07-11T14:33:53;30.40;97.80
14099;DHT22;7126;48.458;7.930;2022-07-11T14:36:19;30.40;97.90
14099;DHT22;7126;48.458;7.930;2022-07-11T14:38:45;30.40;96.40
14099;DHT22;7126;48.458;7.930;2022-07-11T14:41:12;30.40;96.90
14099;DHT22;7126;48.458;7.930;2022-07-11T14:43:37;30.40;97.30
14099;DHT22;7126;48.458;7.930;2022-07-11T14:46:03;30.40;96.80
14099;DHT22;7126;48.458;7.930;2022-07-11T14:48:29;30.30;97.10
14099;DHT22;7126;48.458;7.930;2022-07-11T14:50:55;30.20;96.60
14099;DHT22;7126;48.458;7.930;2022-07-11T14:53:21;30.20;96.20
14099;DHT22;7126;48.458;7.930;2022-07-11T14:55:46;30.20;96.70
14099;DHT22;7126;48.458;7.930;2022-07-11T14:58:12;30.20;96.50
14099;DHT22;7126;48.458;7.930;2022-07-11T15:00:38;30.10;96.60
14099;DHT22;7126;48.458;7.930;2022-07-11T15:03:04;30.10;96.60
14099;DHT22;7126;48.458;7.930;2022-07-11T15:05:49;30.00;97.20
14099;DHT22;7126;48.458;7.930;2022-07-11T15:08:15;30.00;97.10
14099;DHT22;7126;48.458;7.930;2022-07-11T15:10:59;29.90;97.30
14099;DHT22;7126;48.458;7.930;2022-07-11T15:13:43;29.90;97.50
14099;DHT22;7126;48.458;7.930;2022-07-11T15:16:08;29.90;97.10
14099;DHT22;7126;48.458;7.930;2022-07-11T15:18:34;29.80;97.70
14099;DHT22;7126;48.458;7.930;2022-07-11T15:21:00;29.80;96.80
14099;DHT22;7126;48.458;7.930;2022-07-11T15:23:25;29.80;96.80
14099;DHT22;7126;48.458;7.930;2022-07-11T15:25:51;29.80;96.90
14099;DHT22;7126;48.458;7.930;2022-07-11T15:28:16;29.80;96.60
14099;DHT22;7126;48.458;7.930;2022-07-11T15:30:42;29.80;97.20
14099;DHT22;7126;48.458;7.930;2022-07-11T15:33:07;29.80;97.60
14099;DHT22;7126;48.458;7.930;2022-07-11T15:35:33;29.80;96.80
14099;DHT22;7126;48.458;7.930;2022-07-11T15:37:58;29.80;97.50
14099;DHT22;7126;48.458;7.930;2022-07-11T15:40:24;29.80;97.60
14099;DHT22;7126;48.458;7.930;2022-07-11T15:42:50;29.70;97.10
14099;DHT22;7126;48.458;7.930;2022-07-11T15:45:16;29.60;97.60
14099;DHT22;7126;48.458;7.930;2022-07-11T15:47:41;29.60;97.10
14099;DHT22;7126;48.458;7.930;2022-07-11T15:50:07;29.40;97.00
14099;DHT22;7126;48.458;7.930;2022-07-11T15:52:34;29.30;97.10
14099;DHT22;7126;48.458;7.930;2022-07-11T15:54:59;29.20;96.90
14099;DHT22;7126;48.458;7.930;2022-07-11T15:57:26;29.20;97.50
14099;DHT22;7126;48.458;7.930;2022-07-11T15:59:51;29.20;97.60
14099;DHT22;7126;48.458;7.930;2022-07-11T16:02:17;29.20;97.50
14099;DHT22;7126;48.458;7.930;2022-07-11T16:04:43;29.20;97.50
14099;DHT22;7126;48.458;7.930;2022-07-11T16:07:08;29.20;97.10
14099;DHT22;7126;48.458;7.930;2022-07-11T16:09:34;29.20;96.90
14099;DHT22;7126;48.458;7.930;2022-07-11T16:12:01;29.10;96.90
14099;DHT22;7126;48.458;7.930;2022-07-11T16:14:27;29.00;96.60
14099;DHT22;7126;48.458;7.930;2022-07-11T16:16:53;28.90;96.90
14099;DHT22;7126;48.458;7.930;2022-07-11T16:19:19;28.80;96.70
14099;DHT22;7126;48.458;7.930;2022-07-11T16:21:44;28.70;97.20
14099;DHT22;7126;48.458;7.930;2022-07-11T16:24:11;28.60;97.50
14099;DHT22;7126;48.458;7.930;2022-07-11T16:26:36;28.60;98.00
14099;DHT22;7126;48.458;7.930;2022-07-11T16:29:03;28.70;97.60
14099;DHT22;7126;48.458;7.930;2022-07-11T16:31:28;28.60;97.20
14099;DHT22;7126;48.458;7.930;2022-07-11T16:33:54;28.50;97.00
14099;DHT22;7126;48.458;7.930;2022-07-11T16:36:19;28.50;97.10